Time;durP1;ratioP1;P1;durP2;ratioP2;P2;SDS_P1;SDS_P2;PMS_P1;PMS_P2;Temp;Humidity;BMP_temperature;BMP_pressure;BME280_temperature;BME280_humidity;BME280_pressure;Samples;Min_cycle;Max_cycle;Signal;HPM_P1;HPM_P2
2023/06/29 00:02:10;;;;;;;;;;;;;;;19.66;98.04;101646.56;5122179;27;19923;-47
2023/06/29 00:04:35;;;;;;;;;;;;;;;19.65;97.28;101646.53;5121006;27;19938;-46
2023/06/29 00:07:02;;;;;;;;;;;;;;;19.64;97.36;101644.78;5130674;27;19922;-47
2023/06/29 00:09:28;;;;;;;;;;;;;;;19.61;98.09;101639.56;5123589;27;20001;-44
2023/06/29 00:11:54;;;;;;;;;;;;;;;19.60;99.30;101638.72;5115368;27;19932;-45
2023/06/29 00:14:19;;;;;;;;;;;;;;;19.58;99.52;101640.41;5119205;27;19973;-46
2023/06/29 00:16:44;;;;;;;;;;;;;;;19.54;99.37;101630.81;5113601;27;20341;-43
2023/06/29 00:19:11;;;;;;;;;;;;;;;19.51;99.61;101623.84;5125352;27;19919;-44
2023/06/29 00:21:37;;;;;;;;;;;;;;;19.52;99.84;101625.59;5119842;27;19923;-44
2023/06/29 00:24:02;;;;;;;;;;;;;;;19.50;99.27;101629.06;5114985;27;19916;-45
2023/06/29 00:26:28;;;;;;;;;;;;;;;19.50;99.74;101622.09;5119912;27;20410;-43
2023/06/29 00:28:54;;;;;;;;;;;;;;;19.49;98.65;101616.91;5103170;27;19927;-44
2023/06/29 00:31:22;;;;;;;;;;;;;;;19.49;99.14;101622.13;5118888;27;19916;-44
2023/06/29 00:33:47;;;;;;;;;;;;;;;19.49;99.30;101615.16;5120611;27;19962;-43
2023/06/29 00:36:12;;;;;;;;;;;;;;;19.48;98.97;101617.75;5117108;27;19951;-43
2023/06/29 00:38:38;;;;;;;;;;;;;;;19.48;98.98;101609.94;5118329;27;20373;-44
2023/06/29 00:41:03;;;;;;;;;;;;;;;19.49;99.56;101615.16;5116092;27;20400;-48
2023/06/29 00:43:28;;;;;;;;;;;;;;;19.48;99.72;101612.56;5117051;27;20278;-43
2023/06/29 00:45:53;;;;;;;;;;;;;;;19.48;99.23;101613.41;5111958;28;19920;-45
2023/06/29 00:48:19;;;;;;;;;;;;;;;19.46;99.19;101609.91;5100782;27;19980;-46
2023/06/29 00:50:44;;;;;;;;;;;;;;;19.47;100.00;101605.56;5111544;27;20054;-46
2023/06/29 00:53:09;;;;;;;;;;;;;;;19.44;99.81;101606.44;5114872;27;19967;-46
2023/06/29 00:55:36;;;;;;;;;;;;;;;19.45;99.90;101607.31;5114153;27;20069;-44
2023/06/29 00:58:01;;;;;;;;;;;;;;;19.42;99.79;101605.56;5119218;27;19912;-43
2023/06/29 01:00:27;;;;;;;;;;;;;;;19.42;99.09;101596.88;5118517;27;20456;-43
2023/06/29 01:02:52;;;;;;;;;;;;;;;19.41;98.29;101598.59;5123237;27;19997;-44
2023/06/29 01:05:17;;;;;;;;;;;;;;;19.41;99.34;101592.50;5112834;27;20010;-44
2023/06/29 01:07:43;;;;;;;;;;;;;;;19.39;97.07;101592.50;5121192;27;19915;-43
2023/06/29 01:10:10;;;;;;;;;;;;;;;19.37;98.76;101588.16;5122561;27;20694;-46
2023/06/29 01:12:36;;;;;;;;;;;;;;;19.36;96.80;101594.25;5112416;27;19939;-45
2023/06/29 01:15:01;;;;;;;;;;;;;;;19.35;99.90;101590.75;5113422;27;19963;-44
2023/06/29 01:17:29;;;;;;;;;;;;;;;19.35;97.92;101590.75;5113843;27;19920;-45
2023/06/29 01:19:56;;;;;;;;;;;;;;;19.34;99.16;101593.34;5112375;27;19916;-48
2023/06/29 01:22:27;;;;;;;;;;;;;;;19.32;99.66;101589.88;5122445;27;19928;-46
2023/06/29 01:24:52;;;;;;;;;;;;;;;19.32;100.00;101582.06;5119987;27;20369;-45
2023/06/29 01:27:18;;;;;;;;;;;;;;;19.31;100.00;101590.75;5097588;28;20406;-48
2023/06/29 01:29:43;;;;;;;;;;;;;;;19.31;100.00;101589.00;5090701;28;19951;-44
2023/06/29 01:32:09;;;;;;;;;;;;;;;19.30;100.00;101579.44;5090113;28;19970;-47
2023/06/29 01:34:35;;;;;;;;;;;;;;;19.28;100.00;101581.16;5090806;28;19912;-47
2023/06/29 01:37:04;;;;;;;;;;;;;;;19.27;100.00;101582.91;5089992;28;19920;-47
2023/06/29 01:39:33;;;;;;;;;;;;;;;19.26;100.00;101578.56;5090349;28;19920;-46
2023/06/29 01:41:59;;;;;;;;;;;;;;;19.25;99.80;101582.03;5092219;28;19995;-47
2023/06/29 01:44:25;;;;;;;;;;;;;;;19.24;100.00;101577.69;5090560;28;20293;-44
2023/06/29 01:46:51;;;;;;;;;;;;;;;19.25;100.00;101576.81;5090424;28;19920;-44
2023/06/29 01:49:16;;;;;;;;;;;;;;;19.25;100.00;101571.59;5089509;28;19969;-47
2023/06/29 01:51:42;;;;;;;;;;;;;;;19.27;100.00;101571.59;5076553;28;19920;-45
2023/06/29 01:54:07;;;;;;;;;;;;;;;19.26;100.00;101569.88;5091768;28;19920;-44
2023/06/29 01:56:32;;;;;;;;;;;;;;;19.26;100.00;101575.09;5090621;28;19923;-44
2023/06/29 01:59:01;;;;;;;;;;;;;;;19.26;100.00;101569.88;5077732;28;20298;-47
2023/06/29 02:01:26;;;;;;;;;;;;;;;19.24;100.00;101569.88;5090301;28;19916;-44
2023/06/29 02:03:52;;;;;;;;;;;;;;;19.25;100.00;101569.00;5089821;28;20354;-46
2023/06/29 02:06:17;;;;;;;;;;;;;;;19.24;100.00;101564.66;5089922;28;19946;-44
2023/06/29 02:08:42;;;;;;;;;;;;;;;19.24;100.00;101562.03;5090374;28;19919;-44
2023/06/29 02:11:07;;;;;;;;;;;;;;;19.26;100.00;101568.13;5089977;28;19916;-44
2023/06/29 02:13:33;;;;;;;;;;;;;;;19.25;100.00;101561.19;5090477;28;20007;-46
2023/06/29 02:15:58;;;;;;;;;;;;;;;19.28;100.00;101565.53;5089976;28;19920;-45
2023/06/29 02:18:23;;;;;;;;;;;;;;;19.27;100.00;101559.44;5088889;28;19966;-48
2023/06/29 02:20:48;;;;;;;;;;;;;;;19.28;100.00;101561.16;5090133;28;20264;-45
2023/06/29 02:23:14;;;;;;;;;;;;;;;19.27;100.00;101559.44;5089032;28;19923;-47
2023/06/29 02:25:39;;;;;;;;;;;;;;;19.27;100.00;101553.34;5090064;28;19948;-44
2023/06/29 02:28:04;;;;;;;;;;;;;;;19.27;100.00;101558.56;5065509;28;19978;-46
2023/06/29 02:30:29;;;;;;;;;;;;;;;19.26;100.00;101544.66;5095313;28;19916;-49
2023/06/29 02:32:55;;;;;;;;;;;;;;;19.26;100.00;101543.78;5099432;28;19924;-47
2023/06/29 02:35:20;;;;;;;;;;;;;;;19.27;100.00;101550.75;5098357;28;19924;-57
2023/06/29 02:37:45;;;;;;;;;;;;;;;19.25;100.00;101542.94;5102126;28;19924;-58
2023/06/29 02:40:11;;;;;;;;;;;;;;;19.25;100.00;101542.94;5097432;28;20263;-57
2023/06/29 02:42:36;;;;;;;;;;;;;;;19.22;100.00;101542.91;5097072;28;19920;-57
2023/06/29 02:45:02;;;;;;;;;;;;;;;19.22;100.00;101534.22;5099417;28;19920;-57
2023/06/29 02:47:28;;;;;;;;;;;;;;;19.21;100.00;101533.34;5100650;28;19927;-57
2023/06/29 02:49:54;;;;;;;;;;;;;;;19.20;100.00;101528.13;5102026;28;19977;-58
2023/06/29 02:52:20;;;;;;;;;;;;;;;19.19;100.00;101531.59;5097520;28;20016;-58
2023/06/29 02:54:45;;;;;;;;;;;;;;;19.18;100.00;101532.47;5102530;28;19998;-57
2023/06/29 02:57:10;;;;;;;;;;;;;;;19.17;100.00;101534.22;5096993;28;19966;-57
2023/06/29 02:59:35;;;;;;;;;;;;;;;19.16;100.00;101532.44;5102455;28;19923;-57
2023/06/29 03:02:01;;;;;;;;;;;;;;;19.15;100.00;101525.50;5099567;28;19924;-58
2023/06/29 03:04:26;;;;;;;;;;;;;;;19.12;100.00;101530.72;5098188;28;19928;-57
2023/06/29 03:06:51;;;;;;;;;;;;;;;19.12;100.00;101527.25;5100987;28;19965;-58
2023/06/29 03:09:16;;;;;;;;;;;;;;;19.11;100.00;101526.38;5101120;28;19922;-58
2023/06/29 03:11:42;;;;;;;;;;;;;;;19.09;100.00;101532.44;5103410;28;19915;-58
2023/06/29 03:14:07;;;;;;;;;;;;;;;19.07;100.00;101526.34;5103021;28;19920;-58
2023/06/29 03:16:32;;;;;;;;;;;;;;;19.07;100.00;101528.97;5101486;28;19922;-56
2023/06/29 03:18:57;;;;;;;;;;;;;;;19.08;100.00;101528.09;5093499;28;19916;-57
2023/06/29 03:21:23;;;;;;;;;;;;;;;19.07;100.00;101521.13;5094639;28;20454;-57
2023/06/29 03:23:49;;;;;;;;;;;;;;;19.07;100.00;101515.94;5094512;28;19923;-57
2023/06/29 03:26:14;;;;;;;;;;;;;;;19.08;100.00;101526.34;5096841;28;19924;-58
2023/06/29 03:28:40;;;;;;;;;;;;;;;19.08;100.00;101521.13;5098128;28;20440;-57
2023/06/29 03:31:05;;;;;;;;;;;;;;;19.09;100.00;101519.41;5119558;28;19923;-58
2023/06/29 03:33:30;;;;;;;;;;;;;;;19.07;100.00;101519.41;5121005;28;20378;-58
2023/06/29 03:35:55;;;;;;;;;;;;;;;19.08;100.00;101521.13;5115939;28;19912;-58
2023/06/29 03:38:21;;;;;;;;;;;;;;;19.09;100.00;101512.44;5106347;28;19926;-57
2023/06/29 03:40:46;;;;;;;;;;;;;;;19.09;100.00;101517.66;5106584;27;19927;-58
2023/06/29 03:43:11;;;;;;;;;;;;;;;19.10;100.00;101510.72;5116246;27;19915;-57
2023/06/29 03:45:36;;;;;;;;;;;;;;;19.09;100.00;101512.44;5112444;28;19926;-57
2023/06/29 03:48:01;;;;;;;;;;;;;;;19.10;100.00;101519.41;5104084;28;19951;-57
2023/06/29 03:50:27;;;;;;;;;;;;;;;19.09;100.00;101516.78;5116409;27;20271;-58
2023/06/29 03:52:52;;;;;;;;;;;;;;;19.10;100.00;101519.41;5104314;28;19924;-58
2023/06/29 03:55:18;;;;;;;;;;;;;;;19.10;100.00;101515.91;5100098;28;20010;-58
2023/06/29 03:57:43;;;;;;;;;;;;;;;19.12;100.00;101514.22;5103025;27;19977;-57
2023/06/29 04:00:08;;;;;;;;;;;;;;;19.12;100.00;101512.47;5113097;27;19939;-58
2023/06/29 04:02:34;;;;;;;;;;;;;;;19.12;100.00;101504.66;5111878;28;19950;-62
2023/06/29 04:04:59;;;;;;;;;;;;;;;19.12;100.00;101509.00;5109797;28;19927;-58
2023/06/29 04:07:24;;;;;;;;;;;;;;;19.11;100.00;101502.91;5087492;28;19920;-58
2023/06/29 04:09:49;;;;;;;;;;;;;;;19.13;100.00;101506.38;5115373;27;19979;-57
2023/06/29 04:12:14;;;;;;;;;;;;;;;19.14;100.00;101497.69;5095887;28;20005;-57
2023/06/29 04:14:40;;;;;;;;;;;;;;;19.16;100.00;101490.75;5113948;27;19917;-58
2023/06/29 04:17:05;;;;;;;;;;;;;;;19.17;100.00;101489.91;5100258;27;19919;-58
2023/06/29 04:19:30;;;;;;;;;;;;;;;19.19;100.00;101493.38;5120800;27;19920;-58
2023/06/29 04:21:56;;;;;;;;;;;;;;;19.22;100.00;101495.09;5110399;27;19924;-58
2023/06/29 04:24:21;;;;;;;;;;;;;;;19.25;100.00;101492.53;5106366;27;19924;-58
2023/06/29 04:26:46;;;;;;;;;;;;;;;19.26;100.00;101497.72;5098651;28;19967;-58
2023/06/29 04:29:11;;;;;;;;;;;;;;;19.29;100.00;101502.06;5100132;28;20374;-58
2023/06/29 04:31:37;;;;;;;;;;;;;;;19.28;100.00;101488.16;5099018;28;19912;-58
2023/06/29 04:34:02;;;;;;;;;;;;;;;19.28;100.00;101488.16;5098044;28;19916;-57
2023/06/29 04:36:28;;;;;;;;;;;;;;;19.27;100.00;101489.03;5101082;28;19920;-58
2023/06/29 04:38:53;;;;;;;;;;;;;;;19.28;100.00;101489.91;5096607;28;19967;-58
2023/06/29 04:41:18;;;;;;;;;;;;;;;19.29;100.00;101491.63;5088114;28;19917;-58
2023/06/29 04:43:47;;;;;;;;;;;;;;;19.29;100.00;101495.16;5101787;28;19916;-58
2023/06/29 04:46:14;;;;;;;;;;;;;;;19.32;100.00;101488.19;5096129;28;20456;-59
2023/06/29 04:48:39;;;;;;;;;;;;;;;19.32;100.00;101482.97;5100467;28;19912;-58
2023/06/29 04:51:07;;;;;;;;;;;;;;;19.33;100.00;101492.53;5094583;28;19920;-58
2023/06/29 04:53:32;;;;;;;;;;;;;;;19.33;100.00;101487.31;5074616;28;19966;-58
2023/06/29 04:55:58;;;;;;;;;;;;;;;19.33;100.00;101476.88;5094376;28;19955;-58
2023/06/29 04:58:24;;;;;;;;;;;;;;;19.34;100.00;101478.63;5095994;28;20363;-58
2023/06/29 05:00:49;;;;;;;;;;;;;;;19.34;100.00;101483.84;5092521;28;19920;-58
2023/06/29 05:03:14;;;;;;;;;;;;;;;19.35;100.00;101475.13;5101492;28;19984;-58
2023/06/29 05:05:39;;;;;;;;;;;;;;;19.38;100.00;101477.75;5103242;28;20015;-59
2023/06/29 05:08:06;;;;;;;;;;;;;;;19.37;100.00;101481.25;5104661;28;19920;-58
2023/06/29 05:10:31;;;;;;;;;;;;;;;19.38;100.00;101480.38;5096587;28;19939;-57
2023/06/29 05:12:56;;;;;;;;;;;;;;;19.40;100.00;101484.72;5096064;28;20377;-58
2023/06/29 05:15:21;;;;;;;;;;;;;;;19.41;100.00;101477.75;5095353;28;19920;-58
2023/06/29 05:17:47;;;;;;;;;;;;;;;19.42;100.00;101483.00;5096156;28;20394;-59
2023/06/29 05:20:13;;;;;;;;;;;;;;;19.46;100.00;101476.91;5097525;28;19924;-58
2023/06/29 05:22:38;;;;;;;;;;;;;;;19.51;100.00;101484.72;5099372;28;19918;-58
2023/06/29 05:25:04;;;;;;;;;;;;;;;19.54;100.00;101482.16;5101017;28;19919;-59
2023/06/29 05:27:29;;;;;;;;;;;;;;;19.54;100.00;101479.53;5097464;28;20006;-58
2023/06/29 05:29:54;;;;;;;;;;;;;;;19.55;100.00;101478.66;5099777;28;19916;-58
2023/06/29 05:32:19;;;;;;;;;;;;;;;19.57;100.00;101476.91;5094811;28;19977;-58
2023/06/29 05:34:45;;;;;;;;;;;;;;;19.55;100.00;101478.66;5085983;28;19920;-58
2023/06/29 05:37:10;;;;;;;;;;;;;;;19.56;100.00;101478.66;5094650;28;19916;-57
2023/06/29 05:39:35;;;;;;;;;;;;;;;19.57;100.00;101474.31;5093125;28;19957;-57
2023/06/29 05:42:00;;;;;;;;;;;;;;;19.55;100.00;101465.63;5093876;28;20018;-57
2023/06/29 05:44:25;;;;;;;;;;;;;;;19.57;100.00;101479.53;5098050;28;19916;-58
2023/06/29 05:46:51;;;;;;;;;;;;;;;19.57;100.00;101471.69;5096807;28;19943;-56
2023/06/29 05:49:16;;;;;;;;;;;;;;;19.57;100.00;101463.88;5096646;28;19923;-57
2023/06/29 05:51:42;;;;;;;;;;;;;;;19.60;100.00;101469.13;5095747;28;20348;-59
2023/06/29 05:54:07;;;;;;;;;;;;;;;19.65;100.00;101476.94;5096604;28;19916;-57
2023/06/29 05:56:32;;;;;;;;;;;;;;;19.63;100.00;101479.56;5081913;28;19916;-58
2023/06/29 05:58:57;;;;;;;;;;;;;;;19.63;100.00;101470.88;5097246;28;20003;-58
2023/06/29 06:01:23;;;;;;;;;;;;;;;19.68;100.00;101480.44;5094093;28;20508;-57
2023/06/29 06:03:48;;;;;;;;;;;;;;;19.69;100.00;101474.34;5094013;28;20252;-57
2023/06/29 06:06:13;;;;;;;;;;;;;;;19.71;100.00;101469.97;5101103;28;20396;-59
2023/06/29 06:08:38;;;;;;;;;;;;;;;19.77;99.68;101475.19;5096842;28;19919;-58
2023/06/29 06:11:04;;;;;;;;;;;;;;;19.85;100.00;101474.34;5101548;28;19955;-58
2023/06/29 06:13:29;;;;;;;;;;;;;;;19.92;100.00;101474.34;5096789;28;19942;-58
2023/06/29 06:15:55;;;;;;;;;;;;;;;19.99;99.23;101476.06;5101059;28;19916;-58
2023/06/29 06:18:20;;;;;;;;;;;;;;;20.03;98.13;101469.13;5091932;28;19920;-58
2023/06/29 06:20:46;;;;;;;;;;;;;;;20.06;98.25;101472.56;5090972;28;20401;-58
2023/06/29 06:23:11;;;;;;;;;;;;;;;20.12;98.27;101471.69;5100751;28;19915;-57
2023/06/29 06:25:36;;;;;;;;;;;;;;;20.16;97.04;101473.44;5096312;28;19927;-58
2023/06/29 06:28:01;;;;;;;;;;;;;;;20.20;96.56;101474.28;5096861;28;19927;-58
2023/06/29 06:30:27;;;;;;;;;;;;;;;20.21;97.42;101476.91;5095368;28;19922;-57
2023/06/29 06:32:52;;;;;;;;;;;;;;;20.27;96.81;101479.53;5093146;28;20410;-57
2023/06/29 06:35:18;;;;;;;;;;;;;;;20.33;96.40;101469.06;5091942;28;20392;-58
2023/06/29 06:37:44;;;;;;;;;;;;;;;20.43;96.06;101466.41;5098110;28;20015;-56
2023/06/29 06:40:10;;;;;;;;;;;;;;;20.50;95.51;101473.38;5094805;28;19916;-57
2023/06/29 06:42:36;;;;;;;;;;;;;;;20.58;95.07;101471.63;5092544;28;19920;-58
2023/06/29 06:45:03;;;;;;;;;;;;;;;20.69;94.59;101468.94;5095276;28;19961;-57
2023/06/29 06:47:29;;;;;;;;;;;;;;;20.81;92.65;101467.19;5093403;28;19916;-58
2023/06/29 06:49:54;;;;;;;;;;;;;;;20.94;92.31;101472.34;5077070;28;19923;-58
2023/06/29 06:52:19;;;;;;;;;;;;;;;20.97;91.19;101475.81;5085014;28;19919;-58
2023/06/29 06:54:45;;;;;;;;;;;;;;;21.08;91.66;101479.22;5102894;28;19927;-57
2023/06/29 06:57:10;;;;;;;;;;;;;;;21.24;91.11;101474.78;5103003;28;19920;-58
2023/06/29 06:59:35;;;;;;;;;;;;;;;21.36;90.60;101479.97;5104162;28;19939;-57
2023/06/29 07:02:00;;;;;;;;;;;;;;;21.48;89.43;101479.03;5095026;28;19926;-58
2023/06/29 07:04:26;;;;;;;;;;;;;;;21.62;89.05;101469.31;5098524;28;20400;-58
2023/06/29 07:06:51;;;;;;;;;;;;;;;21.78;87.54;101471.78;5095886;28;20017;-58
2023/06/29 07:09:16;;;;;;;;;;;;;;;21.98;84.67;101475.13;5098252;28;20006;-58
2023/06/29 07:11:41;;;;;;;;;;;;;;;22.14;83.94;101473.22;5095957;28;19952;-58
2023/06/29 07:14:06;;;;;;;;;;;;;;;22.30;82.28;101473.94;5098258;28;19916;-58
2023/06/29 07:16:32;;;;;;;;;;;;;;;22.39;83.85;101472.13;5101930;28;20320;-58
2023/06/29 07:19:02;;;;;;;;;;;;;;;22.58;79.69;101470.16;5088194;28;19942;-59
2023/06/29 07:21:28;;;;;;;;;;;;;;;22.74;81.38;101469.06;5100655;28;19983;-58
2023/06/29 07:23:54;;;;;;;;;;;;;;;23.04;81.19;101472.19;5083531;28;19941;-58
2023/06/29 07:26:19;;;;;;;;;;;;;;;23.37;78.46;101473.47;5098713;28;19962;-56
2023/06/29 07:28:44;;;;;;;;;;;;;;;23.65;74.61;101468.66;5101741;28;19924;-58
2023/06/29 07:31:10;;;;;;;;;;;;;;;23.61;73.49;101471.38;5097591;28;20401;-59
2023/06/29 07:33:36;;;;;;;;;;;;;;;23.60;72.00;101464.34;5102290;28;19920;-58
2023/06/29 07:36:01;;;;;;;;;;;;;;;23.74;73.88;101468.53;5106326;28;20097;-58
2023/06/29 07:38:26;;;;;;;;;;;;;;;23.87;73.12;101471.81;5105622;28;19993;-57
2023/06/29 07:40:51;;;;;;;;;;;;;;;24.05;72.67;101468.00;5106019;28;19926;-58
2023/06/29 07:43:17;;;;;;;;;;;;;;;24.30;69.69;101473.66;5102943;28;19927;-58
2023/06/29 07:45:42;;;;;;;;;;;;;;;24.43;68.87;101455.91;5103248;28;19927;-57
2023/06/29 07:48:07;;;;;;;;;;;;;;;24.55;69.54;101459.16;5077937;28;19920;-57
2023/06/29 07:50:33;;;;;;;;;;;;;;;24.75;71.68;101455.25;5092446;28;19916;-58
2023/06/29 07:52:58;;;;;;;;;;;;;;;24.93;68.81;101451.34;5091047;28;19920;-57
2023/06/29 07:55:23;;;;;;;;;;;;;;;25.08;68.57;101454.53;5104224;28;19952;-57
2023/06/29 07:57:49;;;;;;;;;;;;;;;25.18;69.61;101454.31;5100774;28;19922;-58
2023/06/29 08:00:14;;;;;;;;;;;;;;;25.29;63.89;101460.19;5102766;28;19926;-58
2023/06/29 08:02:40;;;;;;;;;;;;;;;25.39;64.59;101453.81;5097581;28;19927;-57
2023/06/29 08:05:06;;;;;;;;;;;;;;;25.43;61.03;101455.50;5099907;28;20095;-58
2023/06/29 08:07:33;;;;;;;;;;;;;;;25.36;62.65;101444.25;5101280;28;19920;-58
2023/06/29 08:09:59;;;;;;;;;;;;;;;25.28;63.17;101446.19;5100960;28;19912;-57
2023/06/29 08:12:24;;;;;;;;;;;;;;;25.25;65.17;101442.78;5075235;28;20018;-58
2023/06/29 08:14:49;;;;;;;;;;;;;;;25.27;65.27;101436.56;5091069;28;19916;-58
2023/06/29 08:17:14;;;;;;;;;;;;;;;25.24;63.17;101444.53;5080889;28;19923;-58
2023/06/29 08:19:40;;;;;;;;;;;;;;;25.17;62.70;101435.03;5095060;28;19916;-57
2023/06/29 08:22:05;;;;;;;;;;;;;;;25.16;64.93;101438.56;5094027;28;19923;-59
2023/06/29 08:24:30;;;;;;;;;;;;;;;25.09;62.30;101447.50;5095467;28;19920;-58
2023/06/29 08:26:55;;;;;;;;;;;;;;;25.09;62.47;101445.75;5094210;28;19924;-58
2023/06/29 08:29:21;;;;;;;;;;;;;;;25.17;63.12;101440.31;5091628;28;20684;-58
2023/06/29 08:31:46;;;;;;;;;;;;;;;25.25;63.15;101445.41;5096354;28;19923;-58
2023/06/29 08:34:11;;;;;;;;;;;;;;;25.34;63.59;101442.53;5071462;28;19928;-58
2023/06/29 08:36:36;;;;;;;;;;;;;;;25.39;61.07;101453.81;5093848;28;19924;-57
2023/06/29 08:39:02;;;;;;;;;;;;;;;25.32;62.43;101449.63;5094512;28;20010;-57
2023/06/29 08:41:27;;;;;;;;;;;;;;;25.19;62.22;101449.03;5099230;28;20331;-58
2023/06/29 08:43:53;;;;;;;;;;;;;;;24.98;60.78;101450.34;5102795;28;19916;-57
2023/06/29 08:46:18;;;;;;;;;;;;;;;24.76;61.16;101449.13;5104338;28;19920;-58
2023/06/29 08:48:44;;;;;;;;;;;;;;;24.62;62.00;101444.13;5097029;28;19948;-59
2023/06/29 08:51:10;;;;;;;;;;;;;;;24.54;63.29;101438.16;5108065;28;19916;-57
2023/06/29 08:53:36;;;;;;;;;;;;;;;24.66;61.37;101442.31;5102331;28;19916;-57
2023/06/29 08:56:02;;;;;;;;;;;;;;;24.76;64.25;101443.84;5100490;28;20003;-58
2023/06/29 08:58:28;;;;;;;;;;;;;;;24.76;64.53;101438.59;5098070;28;19970;-57
2023/06/29 09:00:54;;;;;;;;;;;;;;;24.67;62.84;101441.41;5090259;28;19927;-58
2023/06/29 09:03:19;;;;;;;;;;;;;;;24.68;63.06;101446.63;5086444;28;19916;-57
2023/06/29 09:05:46;;;;;;;;;;;;;;;24.81;62.92;101439.31;5091826;28;19927;-57
2023/06/29 09:08:11;;;;;;;;;;;;;;;24.81;61.40;101439.31;5095039;28;19923;-57
2023/06/29 09:10:38;;;;;;;;;;;;;;;24.95;60.81;101436.41;5094657;28;19916;-58
2023/06/29 09:13:05;;;;;;;;;;;;;;;25.16;61.07;101435.94;5106760;28;19953;-57
2023/06/29 09:15:31;;;;;;;;;;;;;;;25.27;59.32;101435.69;5094921;28;19916;-57
2023/06/29 09:17:56;;;;;;;;;;;;;;;25.27;59.52;101428.66;5102650;28;19926;-57
2023/06/29 09:20:22;;;;;;;;;;;;;;;25.31;58.36;101432.09;5103594;28;19924;-57
2023/06/29 09:22:51;;;;;;;;;;;;;;;25.34;58.37;101429.38;5104948;28;19934;-57
2023/06/29 09:25:16;;;;;;;;;;;;;;;25.36;58.14;101438.09;5106725;28;19938;-58
2023/06/29 09:27:41;;;;;;;;;;;;;;;25.42;58.60;101440.56;5092754;28;20395;-58
2023/06/29 09:30:08;;;;;;;;;;;;;;;25.43;57.06;101436.22;5095323;28;19920;-57
2023/06/29 09:32:40;;;;;;;;;;;;;;;25.35;57.14;101437.22;5087286;28;19927;-57
2023/06/29 09:35:09;;;;;;;;;;;;;;;25.24;55.70;101434.03;5097795;28;19941;-58
2023/06/29 09:37:35;;;;;;;;;;;;;;;25.19;58.87;101432.41;5084508;28;19912;-57
2023/06/29 09:40:00;;;;;;;;;;;;;;;25.29;59.24;101434.75;5091504;28;19912;-58
2023/06/29 09:42:29;;;;;;;;;;;;;;;25.24;57.66;101425.22;5085866;28;19916;-57
2023/06/29 09:44:57;;;;;;;;;;;;;;;25.16;59.23;101429.81;5080198;28;19939;-58
2023/06/29 09:47:23;;;;;;;;;;;;;;;25.17;59.46;101431.53;5093126;28;20367;-57
2023/06/29 09:49:49;;;;;;;;;;;;;;;25.03;59.77;101427.44;5092107;28;19965;-57
2023/06/29 09:52:15;;;;;;;;;;;;;;;25.03;59.65;101435.31;5081824;28;19919;-56
2023/06/29 09:54:40;;;;;;;;;;;;;;;25.06;59.29;101434.44;5087635;28;19938;-56
2023/06/29 09:57:07;;;;;;;;;;;;;;;25.10;58.89;101438.72;5082193;28;19983;-58
2023/06/29 09:59:35;;;;;;;;;;;;;;;25.16;59.20;101435.94;5090468;28;19923;-58
2023/06/29 10:02:01;;;;;;;;;;;;;;;25.21;59.75;101435.84;5092445;28;20014;-57
2023/06/29 10:04:26;;;;;;;;;;;;;;;25.08;58.45;101437.91;5075506;28;19999;-58
2023/06/29 10:06:56;;;;;;;;;;;;;;;25.01;58.94;101438.91;5089612;28;20027;-57
2023/06/29 10:09:21;;;;;;;;;;;;;;;24.95;60.10;101433.78;5092945;28;19984;-57
2023/06/29 10:11:53;;;;;;;;;;;;;;;24.87;58.73;101432.19;5077854;28;20324;-56
2023/06/29 10:14:19;;;;;;;;;;;;;;;24.88;58.48;101433.94;5087550;28;19915;-57
2023/06/29 10:16:45;;;;;;;;;;;;;;;24.97;59.79;101424.94;5097871;28;19943;-57
2023/06/29 10:19:21;;;;;;;;;;;;;;;25.17;59.30;101424.50;5085927;28;19916;-57
2023/06/29 10:21:53;;;;;;;;;;;;;;;25.41;58.82;101434.44;5095671;28;19939;-57
2023/06/29 10:24:21;;;;;;;;;;;;;;;25.58;58.17;101430.53;5080163;28;20011;-46
2023/06/29 10:26:47;;;;;;;;;;;;;;;25.64;56.65;101431.25;5100119;28;19930;-49
2023/06/29 10:29:12;;;;;;;;;;;;;;;25.62;56.90;101430.44;5097790;28;20290;-46
2023/06/29 10:31:41;;;;;;;;;;;;;;;25.59;56.76;101427.88;5103481;28;19977;-45
2023/06/29 10:34:07;;;;;;;;;;;;;;;25.52;57.43;101431.56;5099182;28;19918;-47
2023/06/29 10:36:45;;;;;;;;;;;;;;;25.52;58.16;101425.44;5108323;28;20403;-45
2023/06/29 10:39:40;;;;;;;;;;;;;;;25.54;58.58;101428.88;5100862;28;19969;-46
2023/06/29 10:42:11;;;;;;;;;;;;;;;25.63;59.02;101432.16;5079131;28;19998;-46
2023/06/29 10:44:37;;;;;;;;;;;;;;;25.56;57.41;101427.97;5070545;28;20557;-46
2023/06/29 10:47:02;;;;;;;;;;;;;;;25.42;57.09;101419.50;5090857;28;20015;-45
2023/06/29 10:49:28;;;;;;;;;;;;;;;25.34;57.36;101424.97;5089709;28;19952;-47
2023/06/29 10:51:55;;;;;;;;;;;;;;;25.27;58.19;101426.03;5100193;28;19916;-44
2023/06/29 10:54:23;;;;;;;;;;;;;;;25.24;57.88;101425.22;5097495;28;20396;-45
2023/06/29 10:56:58;;;;;;;;;;;;;;;25.28;58.49;101422.50;5096643;28;19918;-47
2023/06/29 10:59:25;;;;;;;;;;;;;;;25.38;59.36;101417.88;5099057;28;19923;-49
2023/06/29 11:01:50;;;;;;;;;;;;;;;25.51;58.94;101421.06;5078729;28;20010;-48
2023/06/29 11:04:16;;;;;;;;;;;;;;;25.51;56.50;101416.66;5091649;28;19991;-47
2023/06/29 11:06:41;;;;;;;;;;;;;;;25.46;56.41;101415.06;5083480;28;20022;-57
2023/06/29 11:09:13;;;;;;;;;;;;;;;25.32;56.92;101420.66;5079510;28;20366;-56
2023/06/29 11:11:39;;;;;;;;;;;;;;;25.32;58.06;101415.41;5075627;28;19931;-57
2023/06/29 11:14:04;;;;;;;;;;;;;;;25.29;57.59;101418.09;5094775;28;19916;-58
2023/06/29 11:16:31;;;;;;;;;;;;;;;25.29;56.88;101413.69;5105012;28;20524;-56
2023/06/29 11:18:56;;;;;;;;;;;;;;;25.32;56.79;101413.63;5098902;28;20407;-57
2023/06/29 11:21:24;;;;;;;;;;;;;;;25.30;56.58;101417.19;5088634;28;19928;-57
2023/06/29 11:23:50;;;;;;;;;;;;;;;25.38;56.22;101410.84;5109965;28;20419;-57
2023/06/29 11:26:16;;;;;;;;;;;;;;;25.56;57.28;101412.16;5107951;28;19916;-58
2023/06/29 11:28:41;;;;;;;;;;;;;;;25.48;55.69;101414.13;5103209;28;19916;-57
2023/06/29 11:31:07;;;;;;;;;;;;;;;25.60;55.86;101412.91;5083905;28;19946;-57
2023/06/29 11:33:32;;;;;;;;;;;;;;;25.63;55.75;101411.09;5089150;28;19928;-57
2023/06/29 11:35:57;;;;;;;;;;;;;;;25.52;55.48;101402.59;5110901;28;19969;-58
2023/06/29 11:38:22;;;;;;;;;;;;;;;25.52;56.14;101393.84;5095325;28;19916;-57
2023/06/29 11:40:47;;;;;;;;;;;;;;;25.63;56.73;101391.78;5109203;28;19922;-56
2023/06/29 11:43:14;;;;;;;;;;;;;;;25.67;55.97;101390.81;5098839;28;19966;-57
2023/06/29 11:45:39;;;;;;;;;;;;;;;25.81;56.65;101386.06;5101049;28;19961;-57
2023/06/29 11:48:05;;;;;;;;;;;;;;;25.99;54.60;101384.72;5094910;28;19928;-57
2023/06/29 11:50:32;;;;;;;;;;;;;;;26.18;54.18;101388.53;5087741;28;20431;-57
2023/06/29 11:52:57;;;;;;;;;;;;;;;26.14;53.49;101379.00;5102242;28;19950;-57
2023/06/29 11:55:23;;;;;;;;;;;;;;;26.14;55.88;101381.63;5065973;28;19920;-57
2023/06/29 11:57:50;;;;;;;;;;;;;;;26.35;54.62;101388.06;5080243;28;19928;-57
2023/06/29 12:00:16;;;;;;;;;;;;;;;26.42;54.05;101372.97;5085064;28;19917;-56
2023/06/29 12:02:42;;;;;;;;;;;;;;;26.44;54.11;101376.41;5094162;28;19915;-55
2023/06/29 12:05:08;;;;;;;;;;;;;;;26.57;53.71;101377.75;5104232;28;19918;-56
2023/06/29 12:07:37;;;;;;;;;;;;;;;26.76;54.60;101369.31;5101159;28;19927;-56
2023/06/29 12:10:07;;;;;;;;;;;;;;;27.07;53.57;101372.72;5080035;28;19922;-56
2023/06/29 12:12:33;;;;;;;;;;;;;;;27.14;53.64;101368.97;5080674;28;19917;-57
2023/06/29 12:15:10;;;;;;;;;;;;;;;26.89;51.15;101368.88;5084101;28;19966;-58
2023/06/29 12:17:35;;;;;;;;;;;;;;;26.85;53.86;101369.00;5090935;28;19935;-56
2023/06/29 12:20:00;;;;;;;;;;;;;;;26.78;51.66;101370.13;5091050;28;19920;-57
2023/06/29 12:22:25;;;;;;;;;;;;;;;26.64;53.91;101363.50;5085362;28;19965;-58
2023/06/29 12:24:51;;;;;;;;;;;;;;;26.70;53.66;101358.03;5084943;28;19913;-58
2023/06/29 12:27:16;;;;;;;;;;;;;;;26.81;53.58;101355.03;5094512;28;19931;-56